Time,TemperatureF,DewpointF,PressureIn,WindDirection,WindDirectionDegrees,WindSpeedMPH,WindSpeedGustMPH,Humidity,HourlyPrecipIn,Conditions,Clouds,dailyrainin,SoftwareType,DateUTC
2013-02-08 00:01:00,32.0,21.0,30.14,NNW,342,1.0,2.0,64,0.00,,,0.00,,2013-02-08 08:01:00,
2013-02-08 00:11:00,32.0,21.0,30.14,NNW,339,0.0,2.0,64,0.00,,,0.00,,2013-02-08 08:11:00,
2013-02-08 00:21:00,32.0,21.0,30.14,NNW,339,0.0,2.0,64,0.00,,,0.00,,2013-02-08 08:21:00,
2013-02-08 00:32:00,32.0,23.0,30.14,NNW,340,0.0,0.0,68,0.00,,,0.00,,2013-02-08 08:32:00,
2013-02-08 00:41:00,32.0,23.0,30.14,NNW,340,0.0,0.0,68,0.00,,,0.00,,2013-02-08 08:41:00,
2013-02-08 00:52:00,32.0,22.0,30.14,NNW,340,0.0,0.0,65,0.00,,,0.00,,2013-02-08 08:52:00,
2013-02-08 01:02:00,31.0,20.0,30.14,North,360,0.0,2.0,64,0.00,,,0.00,,2013-02-08 09:02:00,
2013-02-08 01:21:00,31.0,20.0,30.14,North,360,0.0,1.0,64,0.00,,,0.00,,2013-02-08 09:21:00,
2013-02-08 01:31:00,31.0,20.0,30.15,North,360,0.0,2.0,63,0.00,,,0.00,,2013-02-08 09:31:00,
2013-02-08 01:41:00,31.0,20.0,30.15,North,360,0.0,2.0,63,0.00,,,0.00,,2013-02-08 09:41:00,
2013-02-08 01:51:00,31.0,20.0,30.15,North,360,0.0,1.0,64,0.00,,,0.00,,2013-02-08 09:51:00,
2013-02-08 02:01:00,31.0,21.0,30.15,NNW,339,0.0,2.0,65,0.00,,,0.00,,2013-02-08 10:01:00,
2013-02-08 02:21:00,32.0,22.0,30.16,North,360,0.0,1.0,66,0.00,,,0.00,,2013-02-08 10:21:00,
2013-02-08 02:31:00,32.0,23.0,30.16,NNW,340,0.0,0.0,69,0.00,,,0.00,,2013-02-08 10:31:00,
2013-02-08 02:41:00,32.0,23.0,30.16,NNW,340,0.0,0.0,69,0.00,,,0.00,,2013-02-08 10:41:00,
2013-02-08 02:51:00,33.0,24.0,30.16,NNW,340,0.0,0.0,69,0.00,,,0.00,,2013-02-08 10:51:00,
2013-02-08 03:01:00,32.0,23.0,30.17,NNW,329,1.0,4.0,68,0.00,,,0.00,,2013-02-08 11:01:00,
2013-02-08 03:11:00,32.0,23.0,30.17,NNW,329,1.0,4.0,68,0.00,,,0.00,,2013-02-08 11:11:00,
2013-02-08 03:21:00,32.0,23.0,30.17,NNW,339,0.0,1.0,70,0.00,,,0.00,,2013-02-08 11:21:00,
2013-02-08 03:32:00,33.0,25.0,30.17,SSW,199,0.0,2.0,71,0.00,,,0.00,,2013-02-08 11:32:00,
2013-02-08 03:41:00,33.0,25.0,30.17,SSW,199,0.0,2.0,71,0.00,,,0.00,,2013-02-08 11:41:00,
2013-02-08 03:52:00,33.0,25.0,30.17,SSW,199,2.0,2.0,71,0.00,,,0.00,,2013-02-08 11:52:00,
2013-02-08 04:01:00,34.0,25.0,30.17,NNW,339,1.0,2.0,69,0.00,,,0.00,,2013-02-08 12:01:00,
2013-02-08 04:11:00,34.0,25.0,30.17,NNW,339,1.0,2.0,69,0.00,,,0.00,,2013-02-08 12:11:00,
2013-02-08 04:21:00,34.0,25.0,30.17,North,360,0.0,2.0,70,0.00,,,0.00,,2013-02-08 12:21:00,
2013-02-08 04:32:00,34.0,25.0,30.18,SSW,199,0.0,2.0,70,0.00,,,0.00,,2013-02-08 12:32:00,
2013-02-08 04:41:00,34.0,25.0,30.18,SSW,199,0.0,2.0,70,0.00,,,0.00,,2013-02-08 12:41:00,
2013-02-08 04:52:00,34.0,25.0,30.18,SSW,199,0.0,2.0,68,0.00,,,0.00,,2013-02-08 12:52:00,
2013-02-08 05:01:00,33.0,24.0,30.18,North,351,1.0,3.0,70,0.00,,,0.00,,2013-02-08 13:01:00,
2013-02-08 05:11:00,33.0,24.0,30.18,North,351,1.0,3.0,70,0.00,,,0.00,,2013-02-08 13:11:00,
2013-02-08 05:21:00,33.0,25.0,30.19,North,352,2.0,4.0,71,0.00,,,0.00,,2013-02-08 13:21:00,
2013-02-08 05:32:00,33.0,25.0,30.19,North,355,2.0,7.0,73,0.00,,,0.00,,2013-02-08 13:32:00,
2013-02-08 05:42:00,33.0,25.0,30.19,North,355,2.0,7.0,73,0.00,,,0.00,,2013-02-08 13:42:00,
2013-02-08 05:51:00,32.0,24.0,30.19,NNW,347,2.0,6.0,73,0.00,,,0.00,,2013-02-08 13:51:00,
2013-02-08 06:01:00,32.0,24.0,30.20,SW,230,0.0,2.0,72,0.00,,,0.00,,2013-02-08 14:01:00,
2013-02-08 06:11:00,32.0,24.0,30.20,SW,230,0.0,2.0,72,0.00,,,0.00,,2013-02-08 14:11:00,
2013-02-08 06:21:00,33.0,25.0,30.20,SSW,200,0.0,4.0,73,0.00,,,0.00,,2013-02-08 14:21:00,
2013-02-08 06:32:00,33.0,25.0,30.20,WNW,287,1.0,3.0,72,0.00,,,0.00,,2013-02-08 14:32:00,
2013-02-08 06:41:00,33.0,25.0,30.20,WNW,287,1.0,3.0,72,0.00,,,0.00,,2013-02-08 14:41:00,
2013-02-08 06:52:00,34.0,26.0,30.20,North,360,0.0,1.0,72,0.00,,,0.00,,2013-02-08 14:52:00,
2013-02-08 07:01:00,34.0,26.0,30.21,NNW,340,0.0,3.0,71,0.00,,,0.00,,2013-02-08 15:01:00,
2013-02-08 07:11:00,34.0,26.0,30.21,NNW,340,0.0,3.0,71,0.00,,,0.00,,2013-02-08 15:11:00,
2013-02-08 07:21:00,33.0,24.0,30.20,North,360,0.0,0.0,70,0.00,,,0.00,,2013-02-08 15:21:00,
2013-02-08 07:31:00,34.0,26.0,30.21,NNW,340,0.0,0.0,71,0.00,,,0.00,,2013-02-08 15:31:00,
2013-02-08 07:41:00,34.0,26.0,30.21,NNW,340,0.0,0.0,71,0.00,,,0.00,,2013-02-08 15:41:00,
2013-02-08 07:51:00,35.0,27.0,30.21,North,360,0.0,0.0,71,0.00,,,0.00,,2013-02-08 15:51:00,
2013-02-08 08:01:00,35.0,26.0,30.21,NNW,340,0.0,0.0,70,0.00,,,0.00,,2013-02-08 16:01:00,
2013-02-08 08:11:00,35.0,26.0,30.21,NNW,340,0.0,0.0,70,0.00,,,0.00,,2013-02-08 16:11:00,
2013-02-08 08:21:00,35.0,26.0,30.22,North,352,0.0,4.0,70,0.00,,,0.00,,2013-02-08 16:21:00,
2013-02-08 08:32:00,35.0,26.0,30.23,NNW,348,1.0,4.0,70,0.00,,,0.00,,2013-02-08 16:32:00,
2013-02-08 08:41:00,35.0,26.0,30.23,NNW,348,1.0,4.0,70,0.00,,,0.00,,2013-02-08 16:41:00,
2013-02-08 08:51:00,35.0,27.0,30.23,North,350,0.0,4.0,71,0.00,,,0.00,,2013-02-08 16:51:00,
2013-02-08 09:03:00,36.0,28.0,30.23,SW,230,0.0,1.0,72,0.01,,,0.01,,2013-02-08 17:03:00,
2013-02-08 09:11:00,37.0,29.0,30.23,NNW,340,0.0,0.0,72,0.00,,,0.01,,2013-02-08 17:11:00,
2013-02-08 09:21:00,37.0,29.0,30.23,NNW,340,0.0,0.0,72,0.00,,,0.01,,2013-02-08 17:21:00,
2013-02-08 09:32:00,37.0,27.0,30.23,SW,230,0.0,0.0,68,0.00,,,0.01,,2013-02-08 17:32:00,
2013-02-08 09:41:00,37.0,27.0,30.23,SW,230,0.0,0.0,68,0.00,,,0.01,,2013-02-08 17:41:00,
2013-02-08 09:52:00,38.0,28.0,30.23,NNW,339,0.0,1.0,68,0.00,,,0.01,,2013-02-08 17:52:00,
2013-02-08 10:01:00,36.0,28.0,30.24,North,353,3.0,7.0,71,0.00,,,0.01,,2013-02-08 18:01:00,
2013-02-08 10:11:00,36.0,28.0,30.24,North,353,3.0,7.0,71,0.00,,,0.01,,2013-02-08 18:11:00,
2013-02-08 10:23:00,36.0,28.0,30.24,North,354,3.0,7.0,71,0.00,,,0.01,,2013-02-08 18:23:00,
2013-02-08 10:33:00,37.0,29.0,30.24,North,353,1.0,4.0,72,0.00,,,0.01,,2013-02-08 18:33:00,
2013-02-08 10:41:00,37.0,29.0,30.24,North,353,1.0,4.0,72,0.00,,,0.01,,2013-02-08 18:41:00,
2013-02-08 10:52:00,38.0,30.0,30.24,NNW,348,1.0,4.0,72,0.00,,,0.01,,2013-02-08 18:52:00,
2013-02-08 11:01:00,39.0,30.0,30.24,SSW,200,0.0,2.0,71,0.00,,,0.01,,2013-02-08 19:01:00,
2013-02-08 11:11:00,39.0,30.0,30.24,SSW,200,0.0,2.0,71,0.00,,,0.01,,2013-02-08 19:11:00,
2013-02-08 11:21:00,40.0,30.0,30.24,NNW,340,0.0,1.0,68,0.00,,,0.01,,2013-02-08 19:21:00,
2013-02-08 11:32:00,41.0,31.0,30.24,SW,221,1.0,4.0,66,0.00,,,0.01,,2013-02-08 19:32:00,
2013-02-08 11:41:00,41.0,31.0,30.24,SW,221,1.0,4.0,66,0.00,,,0.01,,2013-02-08 19:41:00,
2013-02-08 11:52:00,41.0,31.0,30.24,WSW,240,2.0,2.0,66,0.00,,,0.01,,2013-02-08 19:52:00,
2013-02-08 12:01:00,42.0,31.0,30.23,SW,221,2.0,4.0,64,0.00,,,0.01,,2013-02-08 20:01:00,
2013-02-08 12:11:00,42.0,31.0,30.23,SW,221,2.0,4.0,64,0.00,,,0.01,,2013-02-08 20:11:00,
2013-02-08 12:21:00,43.0,32.0,30.22,SSW,213,2.0,4.0,64,0.00,,,0.01,,2013-02-08 20:21:00,
2013-02-08 12:31:00,46.0,32.0,30.22,West,267,2.0,4.0,58,0.00,,,0.01,,2013-02-08 20:31:00,
2013-02-08 12:41:00,46.0,32.0,30.22,West,267,2.0,4.0,58,0.00,,,0.01,,2013-02-08 20:41:00,
2013-02-08 12:52:00,46.0,31.0,30.21,NNW,338,4.0,7.0,55,0.00,,,0.01,,2013-02-08 20:52:00,
2013-02-08 13:01:00,46.0,29.0,30.21,North,350,2.0,7.0,51,0.00,,,0.01,,2013-02-08 21:01:00,
2013-02-08 13:21:00,46.0,26.0,30.21,NW,315,6.0,14.0,46,0.00,,,0.01,,2013-02-08 21:21:00,
2013-02-08 13:32:00,47.0,26.0,30.20,NNW,345,6.0,11.0,44,0.00,,,0.01,,2013-02-08 21:32:00,
2013-02-08 13:41:00,47.0,26.0,30.20,NNW,345,6.0,11.0,44,0.00,,,0.01,,2013-02-08 21:41:00,
2013-02-08 13:52:00,47.0,26.0,30.20,North,350,4.0,12.0,43,0.00,,,0.01,,2013-02-08 21:52:00,
2013-02-08 14:01:00,48.0,25.0,30.20,North,350,5.0,10.0,41,0.00,,,0.01,,2013-02-08 22:01:00,
2013-02-08 14:21:00,47.0,25.0,30.20,North,350,6.0,11.0,41,0.00,,,0.01,,2013-02-08 22:21:00,
2013-02-08 14:31:00,47.0,24.0,30.20,North,349,6.0,12.0,40,0.00,,,0.01,,2013-02-08 22:31:00,
2013-02-08 14:41:00,47.0,24.0,30.20,North,349,6.0,12.0,40,0.00,,,0.01,,2013-02-08 22:41:00,
2013-02-08 14:51:00,47.0,24.0,30.20,North,349,8.0,12.0,40,0.00,,,0.01,,2013-02-08 22:51:00,
2013-02-08 15:01:00,47.0,24.0,30.20,North,349,4.0,12.0,40,0.00,,,0.01,,2013-02-08 23:01:00,
2013-02-08 15:21:00,46.0,23.0,30.20,North,351,7.0,15.0,40,0.00,,,0.01,,2013-02-08 23:21:00,
2013-02-08 15:31:00,47.0,24.0,30.20,North,353,5.0,10.0,40,0.00,,,0.01,,2013-02-08 23:31:00,
2013-02-08 15:41:00,47.0,24.0,30.20,North,353,5.0,10.0,40,0.00,,,0.01,,2013-02-08 23:41:00,
2013-02-08 15:52:00,46.0,23.0,30.21,NNW,348,4.0,13.0,40,0.00,,,0.01,,2013-02-08 23:52:00,
2013-02-08 16:01:00,46.0,22.0,30.20,North,351,8.0,15.0,38,0.00,,,0.01,,2013-02-09 00:01:00,
2013-02-08 16:21:00,45.0,22.0,30.20,North,351,7.0,12.0,40,0.00,,,0.01,,2013-02-09 00:21:00,
2013-02-08 16:31:00,45.0,23.0,30.20,North,350,4.0,9.0,41,0.00,,,0.01,,2013-02-09 00:31:00,
2013-02-08 16:41:00,45.0,23.0,30.20,North,350,4.0,9.0,41,0.00,,,0.01,,2013-02-09 00:41:00,
2013-02-08 16:52:00,45.0,23.0,30.20,North,351,5.0,10.0,42,0.00,,,0.01,,2013-02-09 00:52:00,
2013-02-08 17:01:00,44.0,23.0,30.20,North,352,4.0,7.0,43,0.00,,,0.01,,2013-02-09 01:01:00,
2013-02-08 17:21:00,44.0,23.0,30.20,NNW,340,2.0,7.0,43,0.00,,,0.01,,2013-02-09 01:21:00,
2013-02-08 17:31:00,44.0,24.0,30.20,NNW,341,2.0,7.0,45,0.00,,,0.01,,2013-02-09 01:31:00,
2013-02-08 17:41:00,44.0,24.0,30.20,NNW,341,2.0,7.0,45,0.00,,,0.01,,2013-02-09 01:41:00,
2013-02-08 17:51:00,44.0,23.0,30.20,NNW,344,2.0,7.0,43,0.00,,,0.01,,2013-02-09 01:51:00,
2013-02-08 18:01:00,43.0,24.0,30.21,NNW,348,3.0,4.0,47,0.00,,,0.01,,2013-02-09 02:01:00,
2013-02-08 18:11:00,43.0,24.0,30.21,North,351,3.0,6.0,46,0.00,,,0.01,,2013-02-09 02:11:00,
2013-02-08 18:21:00,43.0,24.0,30.21,North,351,3.0,6.0,46,0.00,,,0.01,,2013-02-09 02:21:00,
2013-02-08 18:31:00,43.0,23.0,30.22,NNW,346,2.0,6.0,45,0.00,,,0.01,,2013-02-09 02:31:00,
2013-02-08 18:41:00,43.0,23.0,30.22,NNW,346,2.0,6.0,45,0.00,,,0.01,,2013-02-09 02:41:00,
2013-02-08 18:52:00,43.0,23.0,30.22,NNW,341,1.0,4.0,45,0.00,,,0.01,,2013-02-09 02:52:00,
2013-02-08 19:01:00,43.0,24.0,30.22,NNW,343,2.0,4.0,46,0.00,,,0.01,,2013-02-09 03:01:00,
2013-02-08 19:21:00,43.0,24.0,30.22,North,349,2.0,7.0,46,0.00,,,0.01,,2013-02-09 03:21:00,
2013-02-08 19:32:00,43.0,25.0,30.22,NNW,347,3.0,6.0,48,0.00,,,0.01,,2013-02-09 03:32:00,
2013-02-08 19:41:00,43.0,25.0,30.22,NNW,347,3.0,6.0,48,0.00,,,0.01,,2013-02-09 03:41:00,
2013-02-08 19:51:00,43.0,25.0,30.22,NNW,340,2.0,5.0,49,0.00,,,0.01,,2013-02-09 03:51:00,
2013-02-08 20:02:00,42.0,25.0,30.22,NNW,343,1.0,5.0,51,0.00,,,0.01,,2013-02-09 04:02:00,
2013-02-08 20:31:00,41.0,25.0,30.22,North,360,0.0,0.0,52,0.00,,,0.01,,2013-02-09 04:31:00,
2013-02-08 20:41:00,41.0,25.0,30.22,North,360,0.0,0.0,52,0.00,,,0.01,,2013-02-09 04:41:00,
2013-02-08 20:52:00,41.0,25.0,30.22,North,360,0.0,0.0,53,0.00,,,0.01,,2013-02-09 04:52:00,
2013-02-08 21:02:00,41.0,25.0,30.22,NW,321,2.0,5.0,52,0.00,,,0.01,,2013-02-09 05:02:00,
2013-02-08 21:22:00,40.0,24.0,30.22,NNW,328,2.0,4.0,52,0.00,,,0.01,,2013-02-09 05:22:00,
2013-02-08 21:31:00,40.0,24.0,30.22,NNW,346,1.0,4.0,53,0.00,,,0.01,,2013-02-09 05:31:00,
2013-02-08 21:41:00,40.0,24.0,30.22,NNW,346,1.0,4.0,53,0.00,,,0.01,,2013-02-09 05:41:00,
2013-02-08 21:52:00,39.0,24.0,30.22,NW,319,0.0,3.0,54,0.00,,,0.01,,2013-02-09 05:52:00,
2013-02-08 22:01:00,39.0,25.0,30.22,NNW,339,1.0,3.0,56,0.00,,,0.01,,2013-02-09 06:01:00,
2013-02-08 22:21:00,39.0,25.0,30.22,NNW,340,0.0,2.0,58,0.00,,,0.01,,2013-02-09 06:21:00,
2013-02-08 22:31:00,39.0,25.0,30.22,North,360,0.0,2.0,57,0.00,,,0.01,,2013-02-09 06:31:00,
2013-02-08 22:41:00,39.0,25.0,30.22,North,360,0.0,2.0,57,0.00,,,0.01,,2013-02-09 06:41:00,
2013-02-08 22:51:00,39.0,25.0,30.22,NNW,339,1.0,3.0,58,0.00,,,0.01,,2013-02-09 06:51:00,
2013-02-08 23:01:00,39.0,26.0,30.23,NNW,340,0.0,0.0,59,0.00,,,0.01,,2013-02-09 07:01:00,
2013-02-08 23:21:00,39.0,25.0,30.23,NNW,340,0.0,0.0,58,0.00,,,0.01,,2013-02-09 07:21:00,
2013-02-08 23:31:00,39.0,26.0,30.23,NNW,340,0.0,0.0,59,0.00,,,0.01,,2013-02-09 07:31:00,
2013-02-08 23:41:00,39.0,26.0,30.23,NNW,340,0.0,0.0,59,0.00,,,0.01,,2013-02-09 07:41:00,
2013-02-08 23:51:00,39.0,25.0,30.23,NNW,340,0.0,0.0,58,0.00,,,0.01,,2013-02-09 07:51:00,